createdAt,value
2024-03-07T00:01:27.858Z,22.75
2024-03-07T00:06:24.383Z,22.00
2024-03-07T00:11:20.956Z,21.48
2024-03-07T00:16:18.301Z,21.50
2024-03-07T00:21:14.760Z,20.75
2024-03-07T00:26:11.674Z,18.95
2024-03-07T00:31:08.367Z,19.08
2024-03-07T00:36:05.301Z,20.23
2024-03-07T00:41:01.817Z,19.73
2024-03-07T00:45:58.259Z,20.70
2024-03-07T00:50:54.823Z,19.98
2024-03-07T00:55:51.378Z,19.65
2024-03-07T01:00:48.872Z,20.38
2024-03-07T01:05:46.129Z,17.98
2024-03-07T01:10:42.717Z,23.27
2024-03-07T01:15:39.185Z,20.13
2024-03-07T01:20:36.651Z,20.42
2024-03-07T01:25:34.915Z,20.80
2024-03-07T01:30:31.485Z,20.10
2024-03-07T01:35:27.998Z,19.67
2024-03-07T01:40:24.564Z,21.10
2024-03-07T01:45:21.050Z,22.55
2024-03-07T01:50:18.806Z,21.30
2024-03-07T01:55:16.254Z,22.38
2024-03-07T02:00:14.009Z,23.05
2024-03-07T02:05:11.216Z,22.92
2024-03-07T02:10:07.970Z,23.58
2024-03-07T02:15:04.800Z,21.80
2024-03-07T02:20:01.229Z,22.42
2024-03-07T02:24:57.654Z,21.45
2024-03-07T02:29:54.205Z,21.73
2024-03-07T02:34:50.748Z,21.77
2024-03-07T02:39:47.303Z,20.85
2024-03-07T02:44:43.904Z,19.88
2024-03-07T02:49:40.373Z,20.45
2024-03-07T02:54:36.834Z,19.17
2024-03-07T02:59:33.371Z,19.90
2024-03-07T03:04:30.269Z,18.50
2024-03-07T03:09:28.748Z,18.48
2024-03-07T03:14:25.275Z,18.95
2024-03-07T03:19:24.314Z,18.10
2024-03-07T03:24:21.280Z,19.38
2024-03-07T03:29:19.335Z,17.95
2024-03-07T03:34:15.925Z,17.73
2024-03-07T03:39:14.493Z,17.83
2024-03-07T03:44:12.516Z,16.58
2024-03-07T03:49:09.089Z,17.73
2024-03-07T03:54:06.810Z,18.98
2024-03-07T03:59:03.325Z,17.40
2024-03-07T04:03:59.820Z,18.20
2024-03-07T04:08:56.713Z,16.95
2024-03-07T04:13:53.314Z,19.35
2024-03-07T04:18:49.808Z,17.27
2024-03-07T04:23:47.629Z,18.60
2024-03-07T04:28:44.249Z,18.33
2024-03-07T04:33:41.029Z,18.05
2024-03-07T04:38:37.552Z,18.55
2024-03-07T04:43:34.407Z,18.40
2024-03-07T04:48:30.873Z,18.58
2024-03-07T04:53:27.493Z,18.95
2024-03-07T04:58:24.103Z,19.40
2024-03-07T05:03:20.877Z,18.45
2024-03-07T05:08:17.436Z,17.83
2024-03-07T05:13:13.921Z,17.80
2024-03-07T05:18:10.972Z,18.17
2024-03-07T05:23:07.470Z,17.83
2024-03-07T05:28:05.046Z,16.90
2024-03-07T05:33:02.719Z,16.45
2024-03-07T05:38:01.029Z,16.73
2024-03-07T05:42:58.221Z,16.08
2024-03-07T05:47:54.815Z,17.10
2024-03-07T05:52:51.297Z,16.88
2024-03-07T05:57:47.778Z,16.42
2024-03-07T06:02:44.388Z,17.08
2024-03-07T06:07:40.908Z,17.05
2024-03-07T06:12:40.065Z,16.08
2024-03-07T06:17:40.238Z,17.73
2024-03-07T06:22:36.764Z,18.27
2024-03-07T06:27:38.541Z,16.95
2024-03-07T06:32:35.083Z,17.33
2024-03-07T06:37:31.566Z,17.27
2024-03-07T06:42:28.020Z,17.10
2024-03-07T06:47:24.639Z,15.52
2024-03-07T06:52:21.946Z,17.13
2024-03-07T06:57:18.461Z,15.65
2024-03-07T07:02:15.109Z,16.40
2024-03-07T07:07:13.965Z,16.10
2024-03-07T07:12:10.480Z,15.98
2024-03-07T07:17:09.385Z,16.02
2024-03-07T07:22:07.538Z,15.38
2024-03-07T07:27:04.309Z,15.55
2024-03-07T07:32:00.839Z,15.48
2024-03-07T07:36:57.910Z,15.23
2024-03-07T07:41:54.447Z,15.80
2024-03-07T07:46:50.947Z,13.80
2024-03-07T07:51:49.469Z,16.08
2024-03-07T07:56:46.005Z,16.88
2024-03-07T08:01:42.477Z,16.65
2024-03-07T08:06:39.017Z,17.38
2024-03-07T08:11:35.495Z,18.33
2024-03-07T08:16:32.019Z,17.40
2024-03-07T08:21:28.491Z,18.23
2024-03-07T08:26:25.071Z,16.98
2024-03-07T08:31:21.523Z,15.93
2024-03-07T08:36:17.961Z,15.80
2024-03-07T08:41:14.573Z,14.95
2024-03-07T08:46:11.226Z,14.13
2024-03-07T08:51:07.760Z,13.75
2024-03-07T08:56:04.458Z,14.77
2024-03-07T09:01:01.454Z,15.50
2024-03-07T09:05:57.944Z,15.30
2024-03-07T09:10:56.342Z,13.63
2024-03-07T09:15:53.310Z,15.65
2024-03-07T09:20:49.953Z,17.25
2024-03-07T09:25:46.771Z,16.95
2024-03-07T09:30:43.324Z,17.75
2024-03-07T09:35:40.214Z,18.15
2024-03-07T09:40:36.818Z,17.33
2024-03-07T09:45:35.547Z,18.75
2024-03-07T09:50:32.764Z,18.10
2024-03-07T09:55:29.510Z,18.52
2024-03-07T10:00:27.868Z,19.20
2024-03-07T10:05:28.599Z,18.88
2024-03-07T10:10:25.428Z,18.75
2024-03-07T10:15:22.692Z,19.50
2024-03-07T10:20:23.165Z,19.27
2024-03-07T10:25:25.267Z,19.75
2024-03-07T10:30:22.438Z,19.08
2024-03-07T10:35:24.048Z,19.10
2024-03-07T10:40:23.181Z,20.38
2024-03-07T10:45:23.343Z,19.25
2024-03-07T10:50:48.479Z,17.90
2024-03-07T10:56:12.307Z,17.33
2024-03-07T11:01:14.110Z,17.10
2024-03-07T11:06:12.695Z,18.15
2024-03-07T11:11:09.754Z,18.27
2024-03-07T11:16:07.552Z,17.52
2024-03-07T11:21:08.489Z,18.83
2024-03-07T11:26:09.994Z,18.40
2024-03-07T11:31:12.906Z,18.15
2024-03-07T11:36:12.875Z,17.50
2024-03-07T11:41:14.485Z,19.05
2024-03-07T11:46:17.640Z,18.40
2024-03-07T11:51:16.425Z,18.00
2024-03-07T11:56:17.780Z,17.13
2024-03-07T12:01:17.687Z,19.03
2024-03-07T12:06:18.204Z,17.63
2024-03-07T12:11:17.034Z,18.20
2024-03-07T12:16:13.807Z,19.80
2024-03-07T12:21:10.912Z,18.88
2024-03-07T12:26:07.565Z,20.73
2024-03-07T12:31:05.117Z,19.67
2024-03-07T12:36:07.681Z,18.52
2024-03-07T12:41:14.452Z,18.67
2024-03-07T12:46:16.162Z,20.67
2024-03-07T12:51:17.749Z,19.13
2024-03-07T12:56:17.414Z,19.60
2024-03-07T13:01:14.357Z,19.85
2024-03-07T13:06:12.096Z,21.35
2024-03-07T13:11:10.849Z,20.63
2024-03-07T13:16:10.675Z,19.10
2024-03-07T13:21:11.957Z,20.48
2024-03-07T13:26:17.963Z,19.50
2024-03-07T13:31:18.183Z,20.73
2024-03-07T13:36:15.911Z,18.15
2024-03-07T13:41:12.946Z,19.75
2024-03-07T13:46:09.479Z,18.50
2024-03-07T13:51:09.389Z,19.20
2024-03-07T13:56:39.883Z,19.10
2024-03-07T14:02:04.887Z,19.63
2024-03-07T14:07:34.830Z,18.92
2024-03-07T14:12:59.432Z,18.83
2024-03-07T14:18:47.454Z,16.75
2024-03-07T14:24:05.544Z,16.52
2024-03-07T14:29:16.232Z,16.48
2024-03-07T14:34:30.851Z,16.55
2024-03-07T14:39:27.353Z,15.88
2024-03-07T14:44:24.108Z,15.85
2024-03-07T14:49:21.214Z,14.52
2024-03-07T14:54:17.766Z,15.23
2024-03-07T14:59:14.233Z,15.55
2024-03-07T15:04:12.345Z,15.45
2024-03-07T15:09:11.029Z,14.95
2024-03-07T15:14:11.041Z,14.45
2024-03-07T15:19:09.587Z,15.23
2024-03-07T15:24:06.835Z,15.40
2024-03-07T15:29:03.628Z,14.93
2024-03-07T15:34:00.156Z,15.15
2024-03-07T15:38:58.452Z,14.52
2024-03-07T15:43:54.959Z,14.25
2024-03-07T15:48:51.517Z,14.02
2024-03-07T15:53:48.330Z,13.88
2024-03-07T15:58:46.294Z,14.20
2024-03-07T16:03:43.606Z,14.57
2024-03-07T16:08:40.468Z,14.45
2024-03-07T16:13:39.262Z,16.00
2024-03-07T16:18:36.627Z,14.93
2024-03-07T16:23:33.174Z,16.30
2024-03-07T16:28:29.643Z,14.90
2024-03-07T16:33:29.254Z,16.42
2024-03-07T16:38:26.033Z,16.58
2024-03-07T16:43:25.513Z,15.55
2024-03-07T16:48:22.264Z,17.73
2024-03-07T16:53:18.789Z,18.95
2024-03-07T16:58:17.201Z,17.95
2024-03-07T17:03:15.993Z,19.38
2024-03-07T17:08:14.065Z,18.75
2024-03-07T17:13:11.493Z,20.20
2024-03-07T17:18:11.300Z,19.08
2024-03-07T17:23:08.877Z,19.10
2024-03-07T17:28:05.727Z,20.30
2024-03-07T17:33:02.480Z,19.88
2024-03-07T17:37:59.235Z,20.65
2024-03-07T17:42:56.293Z,19.23
2024-03-07T17:47:58.312Z,20.52
2024-03-07T17:53:04.350Z,19.27
2024-03-07T17:58:04.050Z,19.30
2024-03-07T18:03:07.374Z,17.60
2024-03-07T18:08:27.716Z,19.35
2024-03-07T18:13:27.778Z,18.88
2024-03-07T18:18:25.765Z,19.27
2024-03-07T18:23:22.888Z,19.65
2024-03-07T18:28:22.281Z,18.98
2024-03-07T18:33:19.379Z,18.63
2024-03-07T18:38:16.598Z,19.38
2024-03-07T18:43:13.878Z,18.38
2024-03-07T18:48:13.121Z,18.67
2024-03-07T18:53:10.113Z,19.58
2024-03-07T18:58:07.594Z,19.20
2024-03-07T19:03:07.388Z,19.65
2024-03-07T19:08:16.197Z,19.75
2024-03-07T19:13:14.452Z,18.63
2024-03-07T19:18:13.844Z,20.00
2024-03-07T19:23:11.833Z,19.75
2024-03-07T19:28:15.458Z,19.70
2024-03-07T19:33:15.797Z,20.02
2024-03-07T19:38:15.281Z,20.23
2024-03-07T19:43:12.458Z,20.08
2024-03-07T19:48:12.590Z,20.42
2024-03-07T19:53:17.240Z,19.92
2024-03-07T19:58:14.098Z,18.52
2024-03-07T20:03:11.489Z,20.38
2024-03-07T20:08:08.940Z,19.42
2024-03-07T20:13:05.367Z,19.17
2024-03-07T20:18:01.943Z,19.98
2024-03-07T20:22:58.492Z,19.58
2024-03-07T20:27:56.819Z,20.17
2024-03-07T20:32:55.028Z,20.52
2024-03-07T20:37:51.522Z,18.83
2024-03-07T20:42:48.213Z,19.10
2024-03-07T20:47:46.695Z,20.10
2024-03-07T20:52:47.169Z,18.77
2024-03-07T20:57:47.300Z,18.98
2024-03-07T21:02:45.243Z,18.20
2024-03-07T21:07:42.738Z,19.48
2024-03-07T21:12:40.924Z,19.23
2024-03-07T21:17:37.957Z,18.33
2024-03-07T21:22:35.040Z,19.98
2024-03-07T21:27:31.440Z,18.50
2024-03-07T21:32:27.932Z,18.38
2024-03-07T21:37:24.447Z,19.35
2024-03-07T21:42:20.967Z,18.95
2024-03-07T21:47:18.210Z,18.80
2024-03-07T21:52:18.032Z,19.75
2024-03-07T21:57:14.961Z,19.75
2024-03-07T22:02:15.966Z,18.33
2024-03-07T22:07:15.891Z,19.83
2024-03-07T22:12:12.319Z,18.58
2024-03-07T22:17:08.834Z,19.77
2024-03-07T22:22:05.431Z,18.98
2024-03-07T22:27:02.149Z,17.33
2024-03-07T22:31:58.678Z,17.63
2024-03-07T22:36:55.126Z,18.27
2024-03-07T22:41:52.616Z,17.27
2024-03-07T22:46:49.117Z,17.77
2024-03-07T22:51:45.572Z,18.73
2024-03-07T22:56:44.558Z,18.63
2024-03-07T23:01:42.604Z,16.60
2024-03-07T23:06:39.043Z,18.13
2024-03-07T23:11:35.800Z,18.08
2024-03-07T23:16:32.390Z,17.70
2024-03-07T23:21:28.835Z,16.77
2024-03-07T23:26:25.411Z,17.77
2024-03-07T23:31:22.223Z,19.15
2024-03-07T23:36:18.737Z,17.30
2024-03-07T23:41:21.358Z,17.65
2024-03-07T23:46:17.833Z,17.80
2024-03-07T23:51:14.335Z,17.98
2024-03-07T23:56:10.820Z,19.20
